sensor_id;sensor_type;location;lat;lon;timestamp;P1;durP1;ratioP1;P2;durP2;ratioP2
36597;SDS011;22607;49.550;11.940;2022-07-01T00:01:29;10.43;;;4.10;;
36597;SDS011;22607;49.550;11.940;2022-07-01T00:03:56;8.93;;;4.00;;
36597;SDS011;22607;49.550;11.940;2022-07-01T00:06:23;9.30;;;3.90;;
36597;SDS011;22607;49.550;11.940;2022-07-01T00:08:49;7.80;;;3.33;;
36597;SDS011;22607;49.550;11.940;2022-07-01T00:11:16;8.60;;;4.00;;
36597;SDS011;22607;49.550;11.940;2022-07-01T00:13:43;13.05;;;4.38;;
36597;SDS011;22607;49.550;11.940;2022-07-01T00:16:09;8.30;;;4.10;;
36597;SDS011;22607;49.550;11.940;2022-07-01T00:18:36;9.50;;;4.20;;
36597;SDS011;22607;49.550;11.940;2022-07-01T00:21:03;9.98;;;3.92;;
36597;SDS011;22607;49.550;11.940;2022-07-01T00:23:29;10.45;;;4.00;;
36597;SDS011;22607;49.550;11.940;2022-07-01T00:25:58;9.52;;;4.28;;
36597;SDS011;22607;49.550;11.940;2022-07-01T00:28:25;8.40;;;4.00;;
36597;SDS011;22607;49.550;11.940;2022-07-01T00:30:52;8.88;;;3.47;;
36597;SDS011;22607;49.550;11.940;2022-07-01T00:33:18;8.80;;;3.90;;
36597;SDS011;22607;49.550;11.940;2022-07-01T00:35:45;8.15;;;3.92;;
36597;SDS011;22607;49.550;11.940;2022-07-01T00:38:12;11.18;;;4.15;;
36597;SDS011;22607;49.550;11.940;2022-07-01T00:40:38;8.90;;;4.15;;
36597;SDS011;22607;49.550;11.940;2022-07-01T00:43:05;10.23;;;4.22;;
36597;SDS011;22607;49.550;11.940;2022-07-01T00:45:32;9.23;;;4.00;;
36597;SDS011;22607;49.550;11.940;2022-07-01T00:47:58;9.20;;;3.97;;
36597;SDS011;22607;49.550;11.940;2022-07-01T00:50:25;11.88;;;3.72;;
36597;SDS011;22607;49.550;11.940;2022-07-01T00:52:52;9.55;;;3.70;;
36597;SDS011;22607;49.550;11.940;2022-07-01T00:55:18;9.15;;;3.40;;
36597;SDS011;22607;49.550;11.940;2022-07-01T00:57:45;8.77;;;3.28;;
36597;SDS011;22607;49.550;11.940;2022-07-01T01:00:16;9.77;;;3.80;;
36597;SDS011;22607;49.550;11.940;2022-07-01T01:02:48;9.18;;;3.20;;
36597;SDS011;22607;49.550;11.940;2022-07-01T01:05:14;8.20;;;3.55;;
36597;SDS011;22607;49.550;11.940;2022-07-01T01:07:41;8.38;;;3.70;;
36597;SDS011;22607;49.550;11.940;2022-07-01T01:10:08;8.48;;;2.90;;
36597;SDS011;22607;49.550;11.940;2022-07-01T01:12:35;8.23;;;3.10;;
36597;SDS011;22607;49.550;11.940;2022-07-01T01:15:02;6.95;;;2.88;;
36597;SDS011;22607;49.550;11.940;2022-07-01T01:17:29;7.63;;;3.42;;
36597;SDS011;22607;49.550;11.940;2022-07-01T01:19:56;7.20;;;2.63;;
36597;SDS011;22607;49.550;11.940;2022-07-01T01:22:22;9.73;;;2.85;;
36597;SDS011;22607;49.550;11.940;2022-07-01T01:24:49;8.07;;;3.30;;
36597;SDS011;22607;49.550;11.940;2022-07-01T01:27:16;7.55;;;2.90;;
36597;SDS011;22607;49.550;11.940;2022-07-01T01:29:43;7.18;;;2.90;;
36597;SDS011;22607;49.550;11.940;2022-07-01T01:32:10;6.97;;;2.67;;
36597;SDS011;22607;49.550;11.940;2022-07-01T01:34:37;8.45;;;2.80;;
36597;SDS011;22607;49.550;11.940;2022-07-01T01:37:06;8.10;;;2.60;;
36597;SDS011;22607;49.550;11.940;2022-07-01T01:39:34;8.25;;;2.70;;
36597;SDS011;22607;49.550;11.940;2022-07-01T01:42:04;7.93;;;3.05;;
36597;SDS011;22607;49.550;11.940;2022-07-01T01:44:32;8.85;;;3.22;;
36597;SDS011;22607;49.550;11.940;2022-07-01T01:46:59;7.15;;;2.97;;
36597;SDS011;22607;49.550;11.940;2022-07-01T01:49:26;8.00;;;2.65;;
36597;SDS011;22607;49.550;11.940;2022-07-01T01:51:53;9.05;;;2.90;;
36597;SDS011;22607;49.550;11.940;2022-07-01T01:54:21;9.52;;;3.25;;
36597;SDS011;22607;49.550;11.940;2022-07-01T01:56:47;7.72;;;2.45;;
36597;SDS011;22607;49.550;11.940;2022-07-01T01:59:14;8.40;;;2.80;;
36597;SDS011;22607;49.550;11.940;2022-07-01T02:01:41;13.10;;;3.47;;
36597;SDS011;22607;49.550;11.940;2022-07-01T02:04:07;9.18;;;3.15;;
36597;SDS011;22607;49.550;11.940;2022-07-01T02:06:34;7.85;;;2.85;;
36597;SDS011;22607;49.550;11.940;2022-07-01T02:09:01;7.90;;;3.08;;
36597;SDS011;22607;49.550;11.940;2022-07-01T02:11:28;8.18;;;2.80;;
36597;SDS011;22607;49.550;11.940;2022-07-01T02:13:55;7.75;;;2.65;;
36597;SDS011;22607;49.550;11.940;2022-07-01T02:16:21;8.95;;;3.17;;
36597;SDS011;22607;49.550;11.940;2022-07-01T02:18:48;8.40;;;2.90;;
36597;SDS011;22607;49.550;11.940;2022-07-01T02:21:15;7.15;;;2.55;;
36597;SDS011;22607;49.550;11.940;2022-07-01T02:23:42;8.57;;;3.03;;
36597;SDS011;22607;49.550;11.940;2022-07-01T02:26:08;9.20;;;2.67;;
36597;SDS011;22607;49.550;11.940;2022-07-01T02:28:35;10.88;;;3.40;;
36597;SDS011;22607;49.550;11.940;2022-07-01T02:31:02;9.88;;;3.38;;
36597;SDS011;22607;49.550;11.940;2022-07-01T02:33:29;9.63;;;3.53;;
36597;SDS011;22607;49.550;11.940;2022-07-01T02:35:55;7.55;;;2.70;;
36597;SDS011;22607;49.550;11.940;2022-07-01T02:38:22;9.23;;;3.45;;
36597;SDS011;22607;49.550;11.940;2022-07-01T02:40:49;6.95;;;2.90;;
36597;SDS011;22607;49.550;11.940;2022-07-01T02:43:16;9.55;;;3.78;;
36597;SDS011;22607;49.550;11.940;2022-07-01T02:45:42;10.85;;;3.90;;
36597;SDS011;22607;49.550;11.940;2022-07-01T02:48:09;9.43;;;3.40;;
36597;SDS011;22607;49.550;11.940;2022-07-01T02:50:36;7.70;;;2.95;;
36597;SDS011;22607;49.550;11.940;2022-07-01T02:53:03;6.55;;;2.78;;
36597;SDS011;22607;49.550;11.940;2022-07-01T02:55:29;11.00;;;3.67;;
36597;SDS011;22607;49.550;11.940;2022-07-01T02:57:56;6.63;;;2.90;;
36597;SDS011;22607;49.550;11.940;2022-07-01T03:00:24;8.27;;;2.80;;
36597;SDS011;22607;49.550;11.940;2022-07-01T03:02:51;9.05;;;3.05;;
36597;SDS011;22607;49.550;11.940;2022-07-01T03:05:17;7.72;;;3.05;;
36597;SDS011;22607;49.550;11.940;2022-07-01T03:07:44;8.27;;;3.30;;
36597;SDS011;22607;49.550;11.940;2022-07-01T03:10:11;7.63;;;3.00;;
36597;SDS011;22607;49.550;11.940;2022-07-01T03:12:38;8.45;;;3.60;;
36597;SDS011;22607;49.550;11.940;2022-07-01T03:15:09;8.05;;;3.03;;
36597;SDS011;22607;49.550;11.940;2022-07-01T03:17:39;7.72;;;3.15;;
36597;SDS011;22607;49.550;11.940;2022-07-01T03:20:09;8.57;;;2.97;;
36597;SDS011;22607;49.550;11.940;2022-07-01T03:22:38;8.95;;;3.03;;
36597;SDS011;22607;49.550;11.940;2022-07-01T03:25:06;8.10;;;2.88;;
36597;SDS011;22607;49.550;11.940;2022-07-01T03:27:34;8.32;;;3.20;;
36597;SDS011;22607;49.550;11.940;2022-07-01T03:30:01;10.55;;;2.92;;
36597;SDS011;22607;49.550;11.940;2022-07-01T03:32:32;7.28;;;3.00;;
36597;SDS011;22607;49.550;11.940;2022-07-01T03:35:00;9.45;;;3.28;;
36597;SDS011;22607;49.550;11.940;2022-07-01T03:37:26;9.07;;;3.03;;
36597;SDS011;22607;49.550;11.940;2022-07-01T03:39:53;8.38;;;2.80;;
36597;SDS011;22607;49.550;11.940;2022-07-01T03:42:19;8.82;;;3.00;;
36597;SDS011;22607;49.550;11.940;2022-07-01T03:44:46;10.10;;;3.25;;
36597;SDS011;22607;49.550;11.940;2022-07-01T03:47:13;10.32;;;3.50;;
36597;SDS011;22607;49.550;11.940;2022-07-01T03:49:39;8.30;;;3.30;;
36597;SDS011;22607;49.550;11.940;2022-07-01T03:52:06;8.32;;;2.72;;
36597;SDS011;22607;49.550;11.940;2022-07-01T03:54:33;8.10;;;3.08;;
36597;SDS011;22607;49.550;11.940;2022-07-01T03:57:06;8.65;;;3.20;;
36597;SDS011;22607;49.550;11.940;2022-07-01T03:59:35;8.02;;;2.88;;
36597;SDS011;22607;49.550;11.940;2022-07-01T04:02:04;8.95;;;3.05;;
36597;SDS011;22607;49.550;11.940;2022-07-01T04:04:31;9.40;;;3.03;;
36597;SDS011;22607;49.550;11.940;2022-07-01T04:06:59;8.85;;;3.20;;
36597;SDS011;22607;49.550;11.940;2022-07-01T04:09:30;8.13;;;3.25;;
36597;SDS011;22607;49.550;11.940;2022-07-01T04:11:57;8.02;;;3.05;;
36597;SDS011;22607;49.550;11.940;2022-07-01T04:14:24;6.85;;;2.70;;
36597;SDS011;22607;49.550;11.940;2022-07-01T04:16:51;9.38;;;3.30;;
36597;SDS011;22607;49.550;11.940;2022-07-01T04:19:18;8.73;;;2.90;;
36597;SDS011;22607;49.550;11.940;2022-07-01T04:21:45;7.85;;;2.80;;
36597;SDS011;22607;49.550;11.940;2022-07-01T04:24:30;6.93;;;2.70;;
36597;SDS011;22607;49.550;11.940;2022-07-01T04:26:58;7.65;;;3.03;;
36597;SDS011;22607;49.550;11.940;2022-07-01T04:29:26;7.40;;;2.78;;
36597;SDS011;22607;49.550;11.940;2022-07-01T04:31:56;8.18;;;2.95;;
36597;SDS011;22607;49.550;11.940;2022-07-01T04:34:24;7.38;;;2.60;;
36597;SDS011;22607;49.550;11.940;2022-07-01T04:36:51;7.35;;;2.58;;
36597;SDS011;22607;49.550;11.940;2022-07-01T04:39:18;7.70;;;2.65;;
36597;SDS011;22607;49.550;11.940;2022-07-01T04:41:45;8.10;;;2.72;;
36597;SDS011;22607;49.550;11.940;2022-07-01T04:44:28;8.00;;;2.45;;
36597;SDS011;22607;49.550;11.940;2022-07-01T04:46:59;7.72;;;2.75;;
36597;SDS011;22607;49.550;11.940;2022-07-01T04:49:27;6.57;;;2.42;;
36597;SDS011;22607;49.550;11.940;2022-07-01T04:51:54;8.75;;;2.92;;
36597;SDS011;22607;49.550;11.940;2022-07-01T04:54:21;9.25;;;2.72;;
36597;SDS011;22607;49.550;11.940;2022-07-01T04:56:49;7.75;;;2.58;;
36597;SDS011;22607;49.550;11.940;2022-07-01T04:59:17;9.95;;;2.83;;
36597;SDS011;22607;49.550;11.940;2022-07-01T05:01:45;9.13;;;2.70;;
36597;SDS011;22607;49.550;11.940;2022-07-01T05:04:15;6.63;;;2.45;;
36597;SDS011;22607;49.550;11.940;2022-07-01T05:06:43;7.40;;;2.60;;
36597;SDS011;22607;49.550;11.940;2022-07-01T05:09:10;7.57;;;2.65;;
36597;SDS011;22607;49.550;11.940;2022-07-01T05:11:37;6.90;;;2.28;;
36597;SDS011;22607;49.550;11.940;2022-07-01T05:14:05;8.18;;;2.83;;
36597;SDS011;22607;49.550;11.940;2022-07-01T05:16:33;7.18;;;2.58;;
36597;SDS011;22607;49.550;11.940;2022-07-01T05:19:01;8.45;;;2.65;;
36597;SDS011;22607;49.550;11.940;2022-07-01T05:21:47;7.80;;;2.90;;
36597;SDS011;22607;49.550;11.940;2022-07-01T05:24:30;7.15;;;2.30;;
36597;SDS011;22607;49.550;11.940;2022-07-01T05:26:58;5.90;;;2.13;;
36597;SDS011;22607;49.550;11.940;2022-07-01T05:29:26;5.57;;;2.20;;
36597;SDS011;22607;49.550;11.940;2022-07-01T05:31:53;6.60;;;2.03;;
36597;SDS011;22607;49.550;11.940;2022-07-01T05:34:20;8.27;;;2.40;;
36597;SDS011;22607;49.550;11.940;2022-07-01T05:36:47;7.50;;;2.22;;
36597;SDS011;22607;49.550;11.940;2022-07-01T05:39:14;5.82;;;1.90;;
36597;SDS011;22607;49.550;11.940;2022-07-01T05:41:40;8.45;;;2.20;;
36597;SDS011;22607;49.550;11.940;2022-07-01T05:44:07;8.15;;;2.50;;
36597;SDS011;22607;49.550;11.940;2022-07-01T05:46:34;6.40;;;2.40;;
36597;SDS011;22607;49.550;11.940;2022-07-01T05:49:02;11.07;;;2.65;;
36597;SDS011;22607;49.550;11.940;2022-07-01T05:51:29;7.53;;;2.33;;
36597;SDS011;22607;49.550;11.940;2022-07-01T05:53:56;7.15;;;2.40;;
36597;SDS011;22607;49.550;11.940;2022-07-01T05:56:24;8.38;;;2.70;;
36597;SDS011;22607;49.550;11.940;2022-07-01T05:58:52;6.93;;;2.33;;
36597;SDS011;22607;49.550;11.940;2022-07-01T06:01:19;6.80;;;2.60;;
36597;SDS011;22607;49.550;11.940;2022-07-01T06:03:46;7.28;;;2.60;;
36597;SDS011;22607;49.550;11.940;2022-07-01T06:06:13;6.88;;;2.53;;
36597;SDS011;22607;49.550;11.940;2022-07-01T06:08:39;9.75;;;2.53;;
36597;SDS011;22607;49.550;11.940;2022-07-01T06:11:06;8.95;;;3.00;;
36597;SDS011;22607;49.550;11.940;2022-07-01T06:13:33;10.63;;;2.90;;
36597;SDS011;22607;49.550;11.940;2022-07-01T06:16:00;9.70;;;3.10;;
36597;SDS011;22607;49.550;11.940;2022-07-01T06:18:27;11.05;;;2.88;;
36597;SDS011;22607;49.550;11.940;2022-07-01T06:20:53;6.95;;;2.53;;
36597;SDS011;22607;49.550;11.940;2022-07-01T06:23:20;9.57;;;2.60;;
36597;SDS011;22607;49.550;11.940;2022-07-01T06:25:47;13.02;;;3.90;;
36597;SDS011;22607;49.550;11.940;2022-07-01T06:28:13;10.75;;;3.40;;
36597;SDS011;22607;49.550;11.940;2022-07-01T06:30:40;12.05;;;3.58;;
36597;SDS011;22607;49.550;11.940;2022-07-01T06:33:10;10.95;;;3.28;;
36597;SDS011;22607;49.550;11.940;2022-07-01T06:35:38;8.40;;;3.47;;
36597;SDS011;22607;49.550;11.940;2022-07-01T06:38:05;9.45;;;3.65;;
36597;SDS011;22607;49.550;11.940;2022-07-01T06:40:32;7.93;;;3.78;;
36597;SDS011;22607;49.550;11.940;2022-07-01T06:42:58;9.45;;;4.50;;
36597;SDS011;22607;49.550;11.940;2022-07-01T06:45:25;8.95;;;3.70;;
36597;SDS011;22607;49.550;11.940;2022-07-01T06:47:52;8.95;;;4.45;;
36597;SDS011;22607;49.550;11.940;2022-07-01T06:50:18;10.20;;;3.97;;
36597;SDS011;22607;49.550;11.940;2022-07-01T06:52:45;9.20;;;3.85;;
36597;SDS011;22607;49.550;11.940;2022-07-01T06:55:12;7.55;;;3.13;;
36597;SDS011;22607;49.550;11.940;2022-07-01T06:57:38;8.05;;;3.88;;
36597;SDS011;22607;49.550;11.940;2022-07-01T07:00:05;8.95;;;3.45;;
36597;SDS011;22607;49.550;11.940;2022-07-01T07:02:32;9.25;;;3.85;;
36597;SDS011;22607;49.550;11.940;2022-07-01T07:05:00;9.10;;;3.95;;
36597;SDS011;22607;49.550;11.940;2022-07-01T07:07:28;8.82;;;3.65;;
36597;SDS011;22607;49.550;11.940;2022-07-01T07:09:55;8.75;;;4.70;;
36597;SDS011;22607;49.550;11.940;2022-07-01T07:12:23;8.98;;;3.63;;
36597;SDS011;22607;49.550;11.940;2022-07-01T07:14:50;8.43;;;3.85;;
36597;SDS011;22607;49.550;11.940;2022-07-01T07:17:17;8.38;;;3.97;;
36597;SDS011;22607;49.550;11.940;2022-07-01T07:19:44;9.38;;;3.60;;
36597;SDS011;22607;49.550;11.940;2022-07-01T07:22:11;8.18;;;3.38;;
36597;SDS011;22607;49.550;11.940;2022-07-01T07:24:37;7.40;;;3.25;;
36597;SDS011;22607;49.550;11.940;2022-07-01T07:27:05;10.02;;;3.42;;
36597;SDS011;22607;49.550;11.940;2022-07-01T07:29:32;7.90;;;2.92;;
36597;SDS011;22607;49.550;11.940;2022-07-01T07:31:58;7.40;;;2.80;;
36597;SDS011;22607;49.550;11.940;2022-07-01T07:34:25;6.60;;;2.60;;
36597;SDS011;22607;49.550;11.940;2022-07-01T07:36:51;5.82;;;2.20;;
36597;SDS011;22607;49.550;11.940;2022-07-01T07:39:18;6.80;;;2.28;;
36597;SDS011;22607;49.550;11.940;2022-07-01T07:41:45;7.13;;;2.58;;
36597;SDS011;22607;49.550;11.940;2022-07-01T07:44:12;4.90;;;2.10;;
36597;SDS011;22607;49.550;11.940;2022-07-01T07:46:38;6.68;;;2.47;;
36597;SDS011;22607;49.550;11.940;2022-07-01T07:49:05;5.63;;;1.80;;
36597;SDS011;22607;49.550;11.940;2022-07-01T07:51:32;5.93;;;1.98;;
36597;SDS011;22607;49.550;11.940;2022-07-01T07:53:59;6.55;;;2.20;;
36597;SDS011;22607;49.550;11.940;2022-07-01T07:56:27;6.15;;;2.08;;
36597;SDS011;22607;49.550;11.940;2022-07-01T07:58:54;5.47;;;1.90;;
36597;SDS011;22607;49.550;11.940;2022-07-01T08:01:21;6.25;;;2.28;;
36597;SDS011;22607;49.550;11.940;2022-07-01T08:03:48;5.38;;;2.00;;
36597;SDS011;22607;49.550;11.940;2022-07-01T08:06:14;6.78;;;2.20;;
36597;SDS011;22607;49.550;11.940;2022-07-01T08:08:41;5.45;;;1.90;;
36597;SDS011;22607;49.550;11.940;2022-07-01T08:11:08;5.63;;;2.15;;
36597;SDS011;22607;49.550;11.940;2022-07-01T08:13:34;6.25;;;2.40;;
36597;SDS011;22607;49.550;11.940;2022-07-01T08:16:01;5.38;;;1.95;;
36597;SDS011;22607;49.550;11.940;2022-07-01T08:18:28;7.43;;;2.35;;
36597;SDS011;22607;49.550;11.940;2022-07-01T08:20:55;5.72;;;2.08;;
36597;SDS011;22607;49.550;11.940;2022-07-01T08:23:22;5.10;;;2.00;;
36597;SDS011;22607;49.550;11.940;2022-07-01T08:25:49;7.60;;;2.53;;
36597;SDS011;22607;49.550;11.940;2022-07-01T08:28:16;5.53;;;1.77;;
36597;SDS011;22607;49.550;11.940;2022-07-01T08:30:44;6.00;;;2.30;;
36597;SDS011;22607;49.550;11.940;2022-07-01T08:33:11;5.65;;;2.00;;
36597;SDS011;22607;49.550;11.940;2022-07-01T08:35:38;5.93;;;2.20;;
36597;SDS011;22607;49.550;11.940;2022-07-01T08:38:05;5.35;;;1.90;;
36597;SDS011;22607;49.550;11.940;2022-07-01T08:40:32;6.18;;;2.28;;
36597;SDS011;22607;49.550;11.940;2022-07-01T08:43:00;4.63;;;1.73;;
36597;SDS011;22607;49.550;11.940;2022-07-01T08:45:30;5.93;;;1.83;;
36597;SDS011;22607;49.550;11.940;2022-07-01T08:47:58;5.30;;;1.80;;
36597;SDS011;22607;49.550;11.940;2022-07-01T08:50:31;6.00;;;2.33;;
36597;SDS011;22607;49.550;11.940;2022-07-01T08:53:07;6.03;;;2.20;;
36597;SDS011;22607;49.550;11.940;2022-07-01T08:55:36;6.50;;;2.45;;
36597;SDS011;22607;49.550;11.940;2022-07-01T08:58:24;6.40;;;2.70;;
36597;SDS011;22607;49.550;11.940;2022-07-01T09:00:52;6.75;;;2.92;;
36597;SDS011;22607;49.550;11.940;2022-07-01T09:03:25;7.40;;;2.80;;
36597;SDS011;22607;49.550;11.940;2022-07-01T09:05:52;7.13;;;3.10;;
36597;SDS011;22607;49.550;11.940;2022-07-01T09:08:20;7.22;;;3.38;;
36597;SDS011;22607;49.550;11.940;2022-07-01T09:10:53;6.95;;;3.05;;
36597;SDS011;22607;49.550;11.940;2022-07-01T09:13:20;6.43;;;2.58;;
36597;SDS011;22607;49.550;11.940;2022-07-01T09:15:46;6.53;;;2.47;;
36597;SDS011;22607;49.550;11.940;2022-07-01T09:18:14;7.28;;;3.20;;
36597;SDS011;22607;49.550;11.940;2022-07-01T09:20:43;7.10;;;2.60;;
36597;SDS011;22607;49.550;11.940;2022-07-01T09:23:13;7.50;;;2.60;;
36597;SDS011;22607;49.550;11.940;2022-07-01T09:28:20;5.93;;;2.17;;
36597;SDS011;22607;49.550;11.940;2022-07-01T09:30:49;6.43;;;2.70;;
36597;SDS011;22607;49.550;11.940;2022-07-01T09:33:24;6.10;;;2.50;;
36597;SDS011;22607;49.550;11.940;2022-07-01T09:35:52;6.55;;;2.17;;
36597;SDS011;22607;49.550;11.940;2022-07-01T09:38:20;7.57;;;2.40;;
36597;SDS011;22607;49.550;11.940;2022-07-01T09:41:02;4.47;;;1.80;;
36597;SDS011;22607;49.550;11.940;2022-07-01T09:43:34;5.07;;;1.80;;
36597;SDS011;22607;49.550;11.940;2022-07-01T09:46:10;4.05;;;1.52;;
36597;SDS011;22607;49.550;11.940;2022-07-01T09:51:05;6.05;;;1.98;;
36597;SDS011;22607;49.550;11.940;2022-07-01T09:53:39;4.90;;;1.70;;
36597;SDS011;22607;49.550;11.940;2022-07-01T09:56:06;4.43;;;1.70;;
36597;SDS011;22607;49.550;11.940;2022-07-01T09:58:33;4.43;;;1.48;;
36597;SDS011;22607;49.550;11.940;2022-07-01T10:01:02;4.35;;;1.40;;
36597;SDS011;22607;49.550;11.940;2022-07-01T10:03:30;3.40;;;1.33;;
36597;SDS011;22607;49.550;11.940;2022-07-01T10:14:22;2.90;;;0.95;;
36597;SDS011;22607;49.550;11.940;2022-07-01T10:16:49;3.40;;;1.10;;
36597;SDS011;22607;49.550;11.940;2022-07-01T10:19:29;4.45;;;1.38;;
36597;SDS011;22607;49.550;11.940;2022-07-01T10:24:50;4.25;;;1.40;;
36597;SDS011;22607;49.550;11.940;2022-07-01T10:27:21;4.57;;;1.60;;
36597;SDS011;22607;49.550;11.940;2022-07-01T10:29:49;5.97;;;1.60;;
36597;SDS011;22607;49.550;11.940;2022-07-01T10:32:41;5.53;;;1.50;;
36597;SDS011;22607;49.550;11.940;2022-07-01T10:35:35;4.00;;;1.60;;
36597;SDS011;22607;49.550;11.940;2022-07-01T10:38:02;5.80;;;1.50;;
36597;SDS011;22607;49.550;11.940;2022-07-01T10:40:39;4.85;;;1.60;;
36597;SDS011;22607;49.550;11.940;2022-07-01T10:43:15;4.50;;;1.80;;
36597;SDS011;22607;49.550;11.940;2022-07-01T10:45:54;3.03;;;1.27;;
36597;SDS011;22607;49.550;11.940;2022-07-01T10:48:21;4.43;;;1.60;;
36597;SDS011;22607;49.550;11.940;2022-07-01T10:50:50;4.93;;;1.70;;
36597;SDS011;22607;49.550;11.940;2022-07-01T10:53:18;4.03;;;1.50;;
36597;SDS011;22607;49.550;11.940;2022-07-01T10:55:52;4.22;;;1.67;;
36597;SDS011;22607;49.550;11.940;2022-07-01T10:58:36;3.95;;;1.50;;
36597;SDS011;22607;49.550;11.940;2022-07-01T11:01:04;4.13;;;1.50;;
36597;SDS011;22607;49.550;11.940;2022-07-01T11:03:40;3.92;;;1.50;;
36597;SDS011;22607;49.550;11.940;2022-07-01T11:06:09;3.90;;;1.33;;
36597;SDS011;22607;49.550;11.940;2022-07-01T11:08:35;6.10;;;1.60;;
36597;SDS011;22607;49.550;11.940;2022-07-01T11:11:02;3.75;;;1.35;;
36597;SDS011;22607;49.550;11.940;2022-07-01T11:13:31;4.65;;;1.60;;
36597;SDS011;22607;49.550;11.940;2022-07-01T11:16:00;5.18;;;1.80;;
36597;SDS011;22607;49.550;11.940;2022-07-01T11:18:27;6.03;;;1.92;;
36597;SDS011;22607;49.550;11.940;2022-07-01T11:21:03;5.07;;;1.92;;
36597;SDS011;22607;49.550;11.940;2022-07-01T11:23:30;6.15;;;2.25;;
36597;SDS011;22607;49.550;11.940;2022-07-01T11:26:05;5.90;;;1.77;;
36597;SDS011;22607;49.550;11.940;2022-07-01T11:28:37;4.18;;;1.70;;
36597;SDS011;22607;49.550;11.940;2022-07-01T11:31:06;5.47;;;1.80;;
36597;SDS011;22607;49.550;11.940;2022-07-01T11:33:32;4.78;;;1.70;;
36597;SDS011;22607;49.550;11.940;2022-07-01T11:35:59;5.57;;;1.40;;
36597;SDS011;22607;49.550;11.940;2022-07-01T11:38:45;5.03;;;1.58;;
36597;SDS011;22607;49.550;11.940;2022-07-01T11:41:30;3.28;;;1.40;;
36597;SDS011;22607;49.550;11.940;2022-07-01T11:43:56;4.32;;;1.30;;
36597;SDS011;22607;49.550;11.940;2022-07-01T11:46:23;3.33;;;1.30;;
36597;SDS011;22607;49.550;11.940;2022-07-01T11:48:51;4.43;;;1.40;;
36597;SDS011;22607;49.550;11.940;2022-07-01T11:51:22;3.38;;;1.40;;
36597;SDS011;22607;49.550;11.940;2022-07-01T11:53:51;4.32;;;1.30;;
36597;SDS011;22607;49.550;11.940;2022-07-01T11:56:30;5.18;;;1.60;;
36597;SDS011;22607;49.550;11.940;2022-07-01T11:59:00;5.05;;;1.60;;
36597;SDS011;22607;49.550;11.940;2022-07-01T12:01:32;3.58;;;1.25;;
36597;SDS011;22607;49.550;11.940;2022-07-01T12:04:02;4.00;;;1.20;;
36597;SDS011;22607;49.550;11.940;2022-07-01T12:06:32;3.88;;;1.35;;
36597;SDS011;22607;49.550;11.940;2022-07-01T12:09:01;4.55;;;1.40;;
36597;SDS011;22607;49.550;11.940;2022-07-01T12:11:28;4.65;;;1.40;;
36597;SDS011;22607;49.550;11.940;2022-07-01T12:14:03;4.20;;;1.50;;
36597;SDS011;22607;49.550;11.940;2022-07-01T12:16:37;6.03;;;1.50;;
36597;SDS011;22607;49.550;11.940;2022-07-01T12:19:05;2.97;;;1.30;;
36597;SDS011;22607;49.550;11.940;2022-07-01T12:21:36;4.80;;;1.52;;
36597;SDS011;22607;49.550;11.940;2022-07-01T12:24:20;3.85;;;1.30;;
36597;SDS011;22607;49.550;11.940;2022-07-01T12:29:27;4.35;;;1.30;;
36597;SDS011;22607;49.550;11.940;2022-07-01T12:32:04;3.63;;;1.25;;
36597;SDS011;22607;49.550;11.940;2022-07-01T12:34:45;3.65;;;1.20;;
36597;SDS011;22607;49.550;11.940;2022-07-01T12:39:46;4.05;;;1.30;;
36597;SDS011;22607;49.550;11.940;2022-07-01T12:44:51;4.80;;;1.10;;
36597;SDS011;22607;49.550;11.940;2022-07-01T12:47:42;4.80;;;1.50;;
36597;SDS011;22607;49.550;11.940;2022-07-01T12:52:56;6.75;;;1.58;;
36597;SDS011;22607;49.550;11.940;2022-07-01T12:55:25;4.25;;;1.25;;
36597;SDS011;22607;49.550;11.940;2022-07-01T12:57:53;3.80;;;1.27;;
36597;SDS011;22607;49.550;11.940;2022-07-01T13:00:22;4.00;;;1.40;;
36597;SDS011;22607;49.550;11.940;2022-07-01T13:02:53;3.92;;;1.30;;
36597;SDS011;22607;49.550;11.940;2022-07-01T13:05:21;3.42;;;1.30;;
36597;SDS011;22607;49.550;11.940;2022-07-01T13:07:48;2.97;;;1.23;;
36597;SDS011;22607;49.550;11.940;2022-07-01T13:10:16;3.22;;;1.30;;
36597;SDS011;22607;49.550;11.940;2022-07-01T13:12:44;3.15;;;1.25;;
36597;SDS011;22607;49.550;11.940;2022-07-01T13:15:12;3.50;;;1.20;;
36597;SDS011;22607;49.550;11.940;2022-07-01T13:17:40;2.58;;;1.05;;
36597;SDS011;22607;49.550;11.940;2022-07-01T13:20:07;3.83;;;1.40;;
36597;SDS011;22607;49.550;11.940;2022-07-01T13:22:35;3.80;;;1.40;;
36597;SDS011;22607;49.550;11.940;2022-07-01T13:25:02;3.97;;;1.33;;
36597;SDS011;22607;49.550;11.940;2022-07-01T13:27:29;2.85;;;1.00;;
36597;SDS011;22607;49.550;11.940;2022-07-01T13:29:56;1.92;;;0.95;;
36597;SDS011;22607;49.550;11.940;2022-07-01T13:32:23;3.53;;;1.20;;
36597;SDS011;22607;49.550;11.940;2022-07-01T13:34:50;3.28;;;1.20;;
36597;SDS011;22607;49.550;11.940;2022-07-01T13:37:17;3.03;;;1.20;;
36597;SDS011;22607;49.550;11.940;2022-07-01T13:39:43;4.47;;;1.10;;
36597;SDS011;22607;49.550;11.940;2022-07-01T13:42:10;2.63;;;1.00;;
36597;SDS011;22607;49.550;11.940;2022-07-01T13:44:37;2.88;;;1.10;;
36597;SDS011;22607;49.550;11.940;2022-07-01T13:47:04;4.20;;;1.20;;
36597;SDS011;22607;49.550;11.940;2022-07-01T13:49:36;2.75;;;1.00;;
36597;SDS011;22607;49.550;11.940;2022-07-01T13:52:04;4.68;;;1.30;;
36597;SDS011;22607;49.550;11.940;2022-07-01T13:54:31;3.55;;;1.00;;
36597;SDS011;22607;49.550;11.940;2022-07-01T13:56:58;1.58;;;0.80;;
36597;SDS011;22607;49.550;11.940;2022-07-01T13:59:25;3.17;;;1.17;;
36597;SDS011;22607;49.550;11.940;2022-07-01T14:01:51;3.33;;;0.82;;
36597;SDS011;22607;49.550;11.940;2022-07-01T14:04:18;3.10;;;0.90;;
36597;SDS011;22607;49.550;11.940;2022-07-01T14:06:45;1.33;;;0.80;;
36597;SDS011;22607;49.550;11.940;2022-07-01T14:09:11;1.70;;;0.77;;
36597;SDS011;22607;49.550;11.940;2022-07-01T14:11:38;2.85;;;0.90;;
36597;SDS011;22607;49.550;11.940;2022-07-01T14:14:05;4.40;;;1.30;;
36597;SDS011;22607;49.550;11.940;2022-07-01T14:16:32;6.15;;;1.60;;
36597;SDS011;22607;49.550;11.940;2022-07-01T14:18:59;5.55;;;1.75;;
36597;SDS011;22607;49.550;11.940;2022-07-01T14:21:25;3.08;;;1.00;;
36597;SDS011;22607;49.550;11.940;2022-07-01T14:23:53;2.78;;;1.20;;
36597;SDS011;22607;49.550;11.940;2022-07-01T14:26:21;1.95;;;0.98;;
36597;SDS011;22607;49.550;11.940;2022-07-01T14:28:48;2.78;;;1.10;;
36597;SDS011;22607;49.550;11.940;2022-07-01T14:31:14;3.92;;;1.05;;
36597;SDS011;22607;49.550;11.940;2022-07-01T14:33:41;3.83;;;0.90;;
36597;SDS011;22607;49.550;11.940;2022-07-01T14:36:08;2.78;;;1.00;;
36597;SDS011;22607;49.550;11.940;2022-07-01T14:38:35;3.45;;;1.08;;
36597;SDS011;22607;49.550;11.940;2022-07-01T14:41:01;3.20;;;1.45;;
36597;SDS011;22607;49.550;11.940;2022-07-01T14:43:28;2.60;;;0.95;;
36597;SDS011;22607;49.550;11.940;2022-07-01T14:45:56;2.20;;;0.90;;
36597;SDS011;22607;49.550;11.940;2022-07-01T14:48:22;2.45;;;0.93;;
36597;SDS011;22607;49.550;11.940;2022-07-01T14:50:49;2.70;;;0.85;;
36597;SDS011;22607;49.550;11.940;2022-07-01T14:53:16;3.03;;;0.90;;
36597;SDS011;22607;49.550;11.940;2022-07-01T14:55:43;2.40;;;1.00;;
36597;SDS011;22607;49.550;11.940;2022-07-01T14:58:09;3.88;;;1.23;;
36597;SDS011;22607;49.550;11.940;2022-07-01T15:00:36;2.95;;;1.00;;
36597;SDS011;22607;49.550;11.940;2022-07-01T15:03:03;3.33;;;1.20;;
36597;SDS011;22607;49.550;11.940;2022-07-01T15:05:32;3.15;;;1.10;;
36597;SDS011;22607;49.550;11.940;2022-07-01T15:07:59;2.25;;;1.00;;